sensor_id;sensor_type;location;lat;lon;timestamp;pressure;altitude;pressure_sealevel;temperature;humidity
60307;BME280;46155;52.364;6.580;2022-09-03T03:02:28;101075.97;;;15.79;53.31
60307;BME280;46155;52.364;6.580;2022-09-03T03:04:54;101078.22;;;15.72;53.50
60307;BME280;46155;52.364;6.580;2022-09-03T03:07:20;101065.44;;;15.61;54.04
60307;BME280;46155;52.364;6.580;2022-09-03T03:09:45;101071.78;;;15.65;53.57
60307;BME280;46155;52.364;6.580;2022-09-03T03:12:10;101068.41;;;15.69;53.78
60307;BME280;46155;52.364;6.580;2022-09-03T03:14:35;101067.63;;;15.72;53.35
60307;BME280;46155;52.364;6.580;2022-09-03T03:17:01;101073.56;;;15.66;53.94
60307;BME280;46155;52.364;6.580;2022-09-03T03:19:26;101063.84;;;15.65;54.18
60307;BME280;46155;52.364;6.580;2022-09-03T03:21:51;101066.63;;;15.68;53.59
60307;BME280;46155;52.364;6.580;2022-09-03T03:24:16;101071.34;;;15.56;53.66
60307;BME280;46155;52.364;6.580;2022-09-03T03:26:42;101069.81;;;15.61;53.86
60307;BME280;46155;52.364;6.580;2022-09-03T03:29:14;101055.59;;;15.59;53.66
60307;BME280;46155;52.364;6.580;2022-09-03T03:31:40;101061.03;;;15.62;54.25
60307;BME280;46155;52.364;6.580;2022-09-03T03:34:05;101057.28;;;15.57;53.67
60307;BME280;46155;52.364;6.580;2022-09-03T03:36:32;101054.34;;;15.50;54.03
60307;BME280;46155;52.364;6.580;2022-09-03T03:38:59;101057.38;;;15.39;54.42
60307;BME280;46155;52.364;6.580;2022-09-03T03:41:30;101063.53;;;15.39;54.30
60307;BME280;46155;52.364;6.580;2022-09-03T03:43:58;101057.28;;;15.37;54.23
60307;BME280;46155;52.364;6.580;2022-09-03T03:46:24;101059.25;;;15.41;54.37
60307;BME280;46155;52.364;6.580;2022-09-03T03:48:51;101060.69;;;15.35;54.62
60307;BME280;46155;52.364;6.580;2022-09-03T03:51:17;101058.13;;;15.36;54.83
60307;BME280;46155;52.364;6.580;2022-09-03T03:53:42;101044.06;;;15.37;54.55
60307;BME280;46155;52.364;6.580;2022-09-03T03:56:10;101063.09;;;15.48;54.38
60307;BME280;46155;52.364;6.580;2022-09-03T03:58:37;101063.09;;;15.48;54.51
60307;BME280;46155;52.364;6.580;2022-09-03T04:01:12;101065.09;;;15.34;54.49
60307;BME280;46155;52.364;6.580;2022-09-03T04:03:38;101066.63;;;15.29;54.72
60307;BME280;46155;52.364;6.580;2022-09-03T04:06:04;101063.84;;;15.26;54.87
60307;BME280;46155;52.364;6.580;2022-09-03T04:08:34;101065.72;;;15.28;54.89
60307;BME280;46155;52.364;6.580;2022-09-03T04:11:00;101056.03;;;15.29;55.00
60307;BME280;46155;52.364;6.580;2022-09-03T04:13:34;101058.75;;;15.30;54.88
60307;BME280;46155;52.364;6.580;2022-09-03T04:16:11;101060.56;;;15.31;54.96
60307;BME280;46155;52.364;6.580;2022-09-03T04:18:37;101063.97;;;15.29;55.22
60307;BME280;46155;52.364;6.580;2022-09-03T04:21:07;101061.81;;;15.20;55.22
60307;BME280;46155;52.364;6.580;2022-09-03T04:23:38;101064.25;;;15.15;55.44
60307;BME280;46155;52.364;6.580;2022-09-03T04:26:05;101065.97;;;15.15;55.68
60307;BME280;46155;52.364;6.580;2022-09-03T04:28:31;101066.66;;;15.11;55.96
60307;BME280;46155;52.364;6.580;2022-09-03T04:31:04;101065.94;;;14.95;56.37
60307;BME280;46155;52.364;6.580;2022-09-03T04:33:30;101063.22;;;14.94;56.49
60307;BME280;46155;52.364;6.580;2022-09-03T04:36:04;101057.81;;;14.91;56.78
60307;BME280;46155;52.364;6.580;2022-09-03T04:38:31;101057.59;;;14.86;56.51
60307;BME280;46155;52.364;6.580;2022-09-03T04:40:57;101062.50;;;14.78;57.01
60307;BME280;46155;52.364;6.580;2022-09-03T04:43:23;101062.66;;;14.82;56.98
60307;BME280;46155;52.364;6.580;2022-09-03T04:45:48;101054.44;;;14.75;57.32
60307;BME280;46155;52.364;6.580;2022-09-03T04:48:14;101058.44;;;14.67;57.63
60307;BME280;46155;52.364;6.580;2022-09-03T04:50:39;101059.97;;;14.62;57.66
60307;BME280;46155;52.364;6.580;2022-09-03T04:53:05;101050.44;;;14.48;57.98
60307;BME280;46155;52.364;6.580;2022-09-03T04:55:35;101055.78;;;14.49;58.17
60307;BME280;46155;52.364;6.580;2022-09-03T04:58:00;101053.38;;;14.54;58.09
60307;BME280;46155;52.364;6.580;2022-09-03T05:00:26;101057.09;;;14.57;57.66
60307;BME280;46155;52.364;6.580;2022-09-03T05:02:51;101056.59;;;14.65;57.65
60307;BME280;46155;52.364;6.580;2022-09-03T05:05:17;101052.31;;;14.68;57.71
60307;BME280;46155;52.364;6.580;2022-09-03T05:07:43;101057.47;;;14.65;57.55
60307;BME280;46155;52.364;6.580;2022-09-03T05:10:10;101053.31;;;14.70;57.12
60307;BME280;46155;52.364;6.580;2022-09-03T05:12:45;101051.22;;;14.63;57.40
60307;BME280;46155;52.364;6.580;2022-09-03T05:15:11;101049.22;;;14.59;57.47
60307;BME280;46155;52.364;6.580;2022-09-03T05:17:37;101058.28;;;14.64;57.76
60307;BME280;46155;52.364;6.580;2022-09-03T05:20:03;101055.28;;;14.74;57.32
60307;BME280;46155;52.364;6.580;2022-09-03T05:22:30;101048.19;;;14.73;57.41
60307;BME280;46155;52.364;6.580;2022-09-03T05:24:55;101054.91;;;14.67;57.46
60307;BME280;46155;52.364;6.580;2022-09-03T05:27:20;101053.88;;;14.63;57.38
60307;BME280;46155;52.364;6.580;2022-09-03T05:29:46;101056.50;;;14.63;57.72
60307;BME280;46155;52.364;6.580;2022-09-03T05:32:11;101054.97;;;14.68;57.32
60307;BME280;46155;52.364;6.580;2022-09-03T05:34:37;101060.94;;;14.64;57.33
60307;BME280;46155;52.364;6.580;2022-09-03T05:37:03;101068.94;;;14.66;57.35
60307;BME280;46155;52.364;6.580;2022-09-03T05:39:28;101061.53;;;14.76;57.30
60307;BME280;46155;52.364;6.580;2022-09-03T05:41:53;101067.97;;;14.82;57.44
60307;BME280;46155;52.364;6.580;2022-09-03T05:44:19;101068.38;;;14.91;57.27
60307;BME280;46155;52.364;6.580;2022-09-03T05:46:47;101063.44;;;14.79;57.02
60307;BME280;46155;52.364;6.580;2022-09-03T05:49:13;101056.53;;;14.83;57.08
60307;BME280;46155;52.364;6.580;2022-09-03T05:51:38;101064.63;;;14.86;56.75
60307;BME280;46155;52.364;6.580;2022-09-03T05:54:04;101062.94;;;14.88;57.00
60307;BME280;46155;52.364;6.580;2022-09-03T05:56:31;101067.47;;;14.90;56.84
60307;BME280;46155;52.364;6.580;2022-09-03T05:58:59;101065.72;;;14.91;56.68
60307;BME280;46155;52.364;6.580;2022-09-03T06:01:30;101070.47;;;14.98;56.89
60307;BME280;46155;52.364;6.580;2022-09-03T06:03:58;101060.91;;;15.00;56.82
60307;BME280;46155;52.364;6.580;2022-09-03T06:06:25;101066.88;;;14.96;56.59
60307;BME280;46155;52.364;6.580;2022-09-03T06:08:52;101064.44;;;15.01;56.71
60307;BME280;46155;52.364;6.580;2022-09-03T06:11:17;101055.69;;;15.02;56.75
60307;BME280;46155;52.364;6.580;2022-09-03T06:13:42;101064.09;;;15.12;56.82
60307;BME280;46155;52.364;6.580;2022-09-03T06:16:08;101074.03;;;15.18;56.51
60307;BME280;46155;52.364;6.580;2022-09-03T06:18:33;101074.00;;;15.36;55.98
60307;BME280;46155;52.364;6.580;2022-09-03T06:21:01;101064.09;;;15.52;55.27
60307;BME280;46155;52.364;6.580;2022-09-03T06:23:29;101067.13;;;15.59;54.79
60307;BME280;46155;52.364;6.580;2022-09-03T06:28:25;101064.69;;;15.83;54.93
60307;BME280;46155;52.364;6.580;2022-09-03T06:30:52;101072.59;;;16.05;54.63
60307;BME280;46155;52.364;6.580;2022-09-03T06:33:17;101079.91;;;15.89;53.87
60307;BME280;46155;52.364;6.580;2022-09-03T06:35:43;101077.13;;;16.07;53.78
60307;BME280;46155;52.364;6.580;2022-09-03T06:38:08;101076.72;;;16.17;54.10
60307;BME280;46155;52.364;6.580;2022-09-03T06:40:36;101066.50;;;16.27;53.25
60307;BME280;46155;52.364;6.580;2022-09-03T06:43:01;101067.19;;;16.23;53.56
60307;BME280;46155;52.364;6.580;2022-09-03T06:45:30;101062.53;;;16.38;53.67
60307;BME280;46155;52.364;6.580;2022-09-03T06:47:56;101068.66;;;16.58;53.73
60307;BME280;46155;52.364;6.580;2022-09-03T06:50:21;101056.78;;;16.71;52.19
60307;BME280;46155;52.364;6.580;2022-09-03T06:52:52;101072.88;;;16.97;51.91
60307;BME280;46155;52.364;6.580;2022-09-03T06:55:19;101074.75;;;17.24;51.89
60307;BME280;46155;52.364;6.580;2022-09-03T06:57:44;101066.44;;;17.37;51.32
60307;BME280;46155;52.364;6.580;2022-09-03T07:00:10;101063.22;;;17.46;51.55
60307;BME280;46155;52.364;6.580;2022-09-03T07:02:36;101072.00;;;17.69;50.39
60307;BME280;46155;52.364;6.580;2022-09-03T07:05:01;101066.28;;;17.82;50.50
60307;BME280;46155;52.364;6.580;2022-09-03T07:07:26;101059.28;;;17.84;49.95
60307;BME280;46155;52.364;6.580;2022-09-03T07:09:52;101069.53;;;17.98;49.95
60307;BME280;46155;52.364;6.580;2022-09-03T07:12:17;101071.09;;;18.18;49.45
60307;BME280;46155;52.364;6.580;2022-09-03T07:14:43;101073.75;;;17.93;49.96
60307;BME280;46155;52.364;6.580;2022-09-03T07:17:10;101075.69;;;17.97;49.97
60307;BME280;46155;52.364;6.580;2022-09-03T07:19:35;101074.88;;;18.25;49.89
60307;BME280;46155;52.364;6.580;2022-09-03T07:22:01;101072.13;;;18.49;48.83
60307;BME280;46155;52.364;6.580;2022-09-03T07:24:26;101075.47;;;18.71;48.93
60307;BME280;46155;52.364;6.580;2022-09-03T07:26:52;101066.41;;;18.91;47.83
60307;BME280;46155;52.364;6.580;2022-09-03T07:29:17;101074.28;;;19.17;47.71
60307;BME280;46155;52.364;6.580;2022-09-03T07:31:46;101070.81;;;18.64;48.05
60307;BME280;46155;52.364;6.580;2022-09-03T07:34:15;101063.50;;;18.56;48.61
60307;BME280;46155;52.364;6.580;2022-09-03T07:36:42;101060.84;;;18.85;48.31
60307;BME280;46155;52.364;6.580;2022-09-03T07:39:10;101063.41;;;18.82;47.76
60307;BME280;46155;52.364;6.580;2022-09-03T07:41:36;101062.66;;;18.86;49.09
60307;BME280;46155;52.364;6.580;2022-09-03T07:44:02;101060.81;;;19.11;47.15
60307;BME280;46155;52.364;6.580;2022-09-03T07:46:30;101059.91;;;19.41;47.76
60307;BME280;46155;52.364;6.580;2022-09-03T07:48:57;101057.66;;;19.56;46.94
60307;BME280;46155;52.364;6.580;2022-09-03T07:51:26;101061.91;;;19.50;47.02
60307;BME280;46155;52.364;6.580;2022-09-03T07:53:53;101059.56;;;19.60;46.66
60307;BME280;46155;52.364;6.580;2022-09-03T07:56:20;101058.84;;;20.00;46.90
60307;BME280;46155;52.364;6.580;2022-09-03T07:58:45;101057.94;;;20.34;46.05
60307;BME280;46155;52.364;6.580;2022-09-03T08:01:14;101060.59;;;19.98;45.86
60307;BME280;46155;52.364;6.580;2022-09-03T08:03:44;101050.84;;;20.00;46.18
60307;BME280;46155;52.364;6.580;2022-09-03T08:06:10;101060.66;;;20.01;46.36
60307;BME280;46155;52.364;6.580;2022-09-03T08:08:38;101059.50;;;20.24;45.64
60307;BME280;46155;52.364;6.580;2022-09-03T08:11:15;101059.56;;;20.27;45.93
60307;BME280;46155;52.364;6.580;2022-09-03T08:13:43;101053.41;;;20.30;45.72
60307;BME280;46155;52.364;6.580;2022-09-03T08:16:11;101061.97;;;20.53;44.92
60307;BME280;46155;52.364;6.580;2022-09-03T08:18:37;101063.50;;;20.78;45.06
60307;BME280;46155;52.364;6.580;2022-09-03T08:21:08;101058.63;;;21.00;43.64
60307;BME280;46155;52.364;6.580;2022-09-03T08:23:38;101062.50;;;20.75;44.53
60307;BME280;46155;52.364;6.580;2022-09-03T08:26:03;101054.13;;;20.97;44.31
60307;BME280;46155;52.364;6.580;2022-09-03T08:28:29;101074.81;;;21.08;43.19
60307;BME280;46155;52.364;6.580;2022-09-03T08:30:55;101064.66;;;21.32;43.78
60307;BME280;46155;52.364;6.580;2022-09-03T08:33:21;101070.94;;;21.35;43.76
60307;BME280;46155;52.364;6.580;2022-09-03T08:36:13;101060.91;;;21.65;42.83
60307;BME280;46155;52.364;6.580;2022-09-03T08:38:40;101066.09;;;21.56;42.90
60307;BME280;46155;52.364;6.580;2022-09-03T08:41:34;101055.75;;;21.75;42.20
60307;BME280;46155;52.364;6.580;2022-09-03T08:47:18;101046.06;;;21.83;41.68
60307;BME280;46155;52.364;6.580;2022-09-03T08:49:51;101056.19;;;21.99;41.57
60307;BME280;46155;52.364;6.580;2022-09-03T08:52:40;101061.03;;;21.29;42.31
60307;BME280;46155;52.364;6.580;2022-09-03T08:55:19;101058.75;;;21.49;42.17
60307;BME280;46155;52.364;6.580;2022-09-03T08:57:52;101056.50;;;21.67;41.63
60307;BME280;46155;52.364;6.580;2022-09-03T09:00:18;101057.75;;;21.88;42.04
60307;BME280;46155;52.364;6.580;2022-09-03T09:05:48;101068.84;;;22.10;40.83
60307;BME280;46155;52.364;6.580;2022-09-03T09:08:34;101064.84;;;22.35;41.00
60307;BME280;46155;52.364;6.580;2022-09-03T09:14:31;101061.25;;;22.91;39.42
60307;BME280;46155;52.364;6.580;2022-09-03T09:17:24;101060.72;;;23.14;39.91
60307;BME280;46155;52.364;6.580;2022-09-03T09:20:23;101065.38;;;23.30;38.03
60307;BME280;46155;52.364;6.580;2022-09-03T09:22:55;101058.13;;;23.23;38.27
60307;BME280;46155;52.364;6.580;2022-09-03T09:25:23;101052.56;;;23.09;39.51
60307;BME280;46155;52.364;6.580;2022-09-03T09:27:58;101057.44;;;23.38;38.74
60307;BME280;46155;52.364;6.580;2022-09-03T09:30:24;101058.66;;;22.99;39.04
60307;BME280;46155;52.364;6.580;2022-09-03T09:32:49;101049.84;;;23.06;39.31
60307;BME280;46155;52.364;6.580;2022-09-03T09:35:16;101050.97;;;22.61;39.36
60307;BME280;46155;52.364;6.580;2022-09-03T09:37:55;101052.69;;;22.54;40.22
60307;BME280;46155;52.364;6.580;2022-09-03T09:45:32;101048.38;;;23.27;38.75
60307;BME280;46155;52.364;6.580;2022-09-03T09:47:58;101040.44;;;23.36;37.76
60307;BME280;46155;52.364;6.580;2022-09-03T09:50:25;101027.38;;;22.93;38.60
60307;BME280;46155;52.364;6.580;2022-09-03T09:53:05;101034.81;;;23.14;39.19
60307;BME280;46155;52.364;6.580;2022-09-03T09:55:56;101039.75;;;23.52;37.78
60307;BME280;46155;52.364;6.580;2022-09-03T09:58:26;101027.19;;;23.48;38.10
60307;BME280;46155;52.364;6.580;2022-09-03T10:01:04;101034.94;;;23.22;38.35
60307;BME280;46155;52.364;6.580;2022-09-03T10:03:40;101031.72;;;22.86;38.54
60307;BME280;46155;52.364;6.580;2022-09-03T10:06:13;101032.94;;;23.09;38.58
60307;BME280;46155;52.364;6.580;2022-09-03T10:09:10;101036.47;;;23.08;39.70
60307;BME280;46155;52.364;6.580;2022-09-03T10:11:38;101035.16;;;23.41;37.93
60307;BME280;46155;52.364;6.580;2022-09-03T10:14:12;101025.81;;;23.86;37.57
60307;BME280;46155;52.364;6.580;2022-09-03T10:16:43;101024.97;;;23.90;36.99
60307;BME280;46155;52.364;6.580;2022-09-03T10:19:17;101030.38;;;23.93;36.57
60307;BME280;46155;52.364;6.580;2022-09-03T10:26:57;101027.88;;;24.13;36.29
60307;BME280;46155;52.364;6.580;2022-09-03T10:29:23;101015.47;;;24.28;36.77
60307;BME280;46155;52.364;6.580;2022-09-03T10:40:51;101029.00;;;24.48;34.93
60307;BME280;46155;52.364;6.580;2022-09-03T10:46:21;101007.94;;;25.06;34.81
60307;BME280;46155;52.364;6.580;2022-09-03T10:51:25;101014.09;;;24.84;35.31
60307;BME280;46155;52.364;6.580;2022-09-03T10:56:56;101011.69;;;24.04;36.32
60307;BME280;46155;52.364;6.580;2022-09-03T11:02:24;101004.25;;;24.89;34.32
60307;BME280;46155;52.364;6.580;2022-09-03T11:08:01;101009.47;;;24.61;34.31
60307;BME280;46155;52.364;6.580;2022-09-03T11:10:33;101014.91;;;24.73;35.74
60307;BME280;46155;52.364;6.580;2022-09-03T11:13:09;100996.19;;;24.86;34.98
60307;BME280;46155;52.364;6.580;2022-09-03T11:15:54;101004.38;;;25.20;34.34
60307;BME280;46155;52.364;6.580;2022-09-03T11:18:25;100991.06;;;25.51;33.09
60307;BME280;46155;52.364;6.580;2022-09-03T11:20:55;100990.19;;;25.58;33.26
60307;BME280;46155;52.364;6.580;2022-09-03T11:23:27;101003.66;;;25.78;33.09
60307;BME280;46155;52.364;6.580;2022-09-03T11:25:59;100996.50;;;25.91;32.42
60307;BME280;46155;52.364;6.580;2022-09-03T11:33:40;100991.78;;;25.03;34.23
60307;BME280;46155;52.364;6.580;2022-09-03T11:36:07;100990.88;;;24.97;34.26
60307;BME280;46155;52.364;6.580;2022-09-03T11:38:33;100991.88;;;25.30;33.19
60307;BME280;46155;52.364;6.580;2022-09-03T11:41:03;100982.06;;;25.33;33.25
60307;BME280;46155;52.364;6.580;2022-09-03T11:43:36;100988.41;;;25.66;32.76
60307;BME280;46155;52.364;6.580;2022-09-03T11:48:45;100970.50;;;25.77;32.53
60307;BME280;46155;52.364;6.580;2022-09-03T11:56:30;100976.50;;;24.87;34.07
60307;BME280;46155;52.364;6.580;2022-09-03T11:59:14;100974.69;;;24.81;34.29
60307;BME280;46155;52.364;6.580;2022-09-03T12:01:51;100973.81;;;24.87;34.12
60307;BME280;46155;52.364;6.580;2022-09-03T12:04:19;100980.19;;;25.20;33.33
60307;BME280;46155;52.364;6.580;2022-09-03T12:07:03;100981.22;;;25.45;32.94
60307;BME280;46155;52.364;6.580;2022-09-03T12:12:42;100973.03;;;25.17;33.23
60307;BME280;46155;52.364;6.580;2022-09-03T12:15:33;100972.03;;;24.89;33.49
60307;BME280;46155;52.364;6.580;2022-09-03T12:18:04;100972.97;;;24.99;33.72
60307;BME280;46155;52.364;6.580;2022-09-03T12:20:43;100970.34;;;25.19;33.16
60307;BME280;46155;52.364;6.580;2022-09-03T12:23:10;100962.31;;;25.31;32.86
60307;BME280;46155;52.364;6.580;2022-09-03T12:25:42;100966.91;;;25.63;32.39
60307;BME280;46155;52.364;6.580;2022-09-03T12:28:15;100973.19;;;25.76;32.40
60307;BME280;46155;52.364;6.580;2022-09-03T12:30:41;100970.47;;;25.71;32.62
60307;BME280;46155;52.364;6.580;2022-09-03T12:33:08;100942.72;;;25.66;32.12
60307;BME280;46155;52.364;6.580;2022-09-03T12:35:35;100959.75;;;25.81;32.29
60307;BME280;46155;52.364;6.580;2022-09-03T12:38:00;100953.44;;;25.58;32.09
60307;BME280;46155;52.364;6.580;2022-09-03T12:40:27;100960.59;;;25.50;32.58
60307;BME280;46155;52.364;6.580;2022-09-03T12:42:53;100954.31;;;25.50;32.19
60307;BME280;46155;52.364;6.580;2022-09-03T12:45:22;100956.16;;;25.69;32.29
60307;BME280;46155;52.364;6.580;2022-09-03T12:47:48;100956.16;;;25.88;31.97
60307;BME280;46155;52.364;6.580;2022-09-03T12:50:22;100953.47;;;25.94;31.86
60307;BME280;46155;52.364;6.580;2022-09-03T12:52:57;100951.69;;;25.91;32.10
60307;BME280;46155;52.364;6.580;2022-09-03T12:58:08;100944.50;;;25.93;32.16
60307;BME280;46155;52.364;6.580;2022-09-03T13:00:40;100952.56;;;25.95;32.15
60307;BME280;46155;52.364;6.580;2022-09-03T13:03:08;100954.38;;;26.15;31.71
60307;BME280;46155;52.364;6.580;2022-09-03T13:05:43;100949.91;;;26.14;31.36
60307;BME280;46155;52.364;6.580;2022-09-03T13:08:15;100949.00;;;26.15;31.63
60307;BME280;46155;52.364;6.580;2022-09-03T13:10:42;100948.09;;;25.97;31.60
60307;BME280;46155;52.364;6.580;2022-09-03T13:13:30;100946.28;;;25.82;32.33
60307;BME280;46155;52.364;6.580;2022-09-03T13:16:28;100943.63;;;26.01;31.82
60307;BME280;46155;52.364;6.580;2022-09-03T13:25:12;100940.00;;;25.72;31.96
60307;BME280;46155;52.364;6.580;2022-09-03T13:27:57;100934.66;;;25.71;31.94
60307;BME280;46155;52.364;6.580;2022-09-03T13:30:37;100932.84;;;25.70;32.00
60307;BME280;46155;52.364;6.580;2022-09-03T13:35:48;100934.66;;;25.85;32.33
60307;BME280;46155;52.364;6.580;2022-09-03T13:44:16;100936.44;;;25.95;31.90
60307;BME280;46155;52.364;6.580;2022-09-03T13:46:47;100935.56;;;25.74;32.39
60307;BME280;46155;52.364;6.580;2022-09-03T13:49:36;100931.94;;;25.74;33.03
60307;BME280;46155;52.364;6.580;2022-09-03T13:52:31;100921.22;;;25.85;32.55
60307;BME280;46155;52.364;6.580;2022-09-03T13:55:08;100923.88;;;25.78;32.17
60307;BME280;46155;52.364;6.580;2022-09-03T13:57:48;100925.66;;;25.67;32.33
60307;BME280;46155;52.364;6.580;2022-09-03T14:00:27;100925.69;;;25.86;32.91
60307;BME280;46155;52.364;6.580;2022-09-03T14:03:24;100929.25;;;26.12;32.11
60307;BME280;46155;52.364;6.580;2022-09-03T14:06:17;100923.88;;;25.88;32.07
60307;BME280;46155;52.364;6.580;2022-09-03T14:14:50;100925.69;;;26.21;32.61
60307;BME280;46155;52.364;6.580;2022-09-03T14:20:20;100938.19;;;26.45;33.18
60307;BME280;46155;52.364;6.580;2022-09-03T14:22:51;100931.91;;;26.51;32.30
60307;BME280;46155;52.364;6.580;2022-09-03T14:25:20;100933.69;;;26.55;32.26
60307;BME280;46155;52.364;6.580;2022-09-03T14:27:46;100941.75;;;26.55;31.99
60307;BME280;46155;52.364;6.580;2022-09-03T14:30:27;100930.97;;;26.49;32.40
60307;BME280;46155;52.364;6.580;2022-09-03T14:33:19;100927.38;;;26.55;32.18
60307;BME280;46155;52.364;6.580;2022-09-03T14:38:28;100931.91;;;26.50;31.67
60307;BME280;46155;52.364;6.580;2022-09-03T14:46:58;100936.44;;;26.23;32.49
60307;BME280;46155;52.364;6.580;2022-09-03T14:50:01;100936.41;;;26.41;32.60
60307;BME280;46155;52.364;6.580;2022-09-03T14:55:08;100928.31;;;26.43;31.93
60307;BME280;46155;52.364;6.580;2022-09-03T15:00:32;100939.97;;;26.46;32.92
60307;BME280;46155;52.364;6.580;2022-09-03T15:05:52;100940.06;;;26.16;33.04
60307;BME280;46155;52.364;6.580;2022-09-03T15:08:53;100935.56;;;26.10;33.30
60307;BME280;46155;52.364;6.580;2022-09-03T15:11:28;100939.09;;;25.84;33.11
60307;BME280;46155;52.364;6.580;2022-09-03T15:14:13;100939.16;;;26.04;33.17
60307;BME280;46155;52.364;6.580;2022-09-03T15:16:50;100940.03;;;26.06;33.67
60307;BME280;46155;52.364;6.580;2022-09-03T15:19:38;100940.03;;;26.12;33.75
60307;BME280;46155;52.364;6.580;2022-09-03T15:25:47;100940.94;;;26.07;33.91
60307;BME280;46155;52.364;6.580;2022-09-03T15:28:09;100941.84;;;26.04;34.50
60307;BME280;46155;52.364;6.580;2022-09-03T15:30:44;100946.31;;;26.02;34.26
60307;BME280;46155;52.364;6.580;2022-09-03T15:33:20;100940.94;;;26.05;33.80
60307;BME280;46155;52.364;6.580;2022-09-03T15:36:09;100943.63;;;26.05;33.88
60307;BME280;46155;52.364;6.580;2022-09-03T15:41:34;100943.59;;;25.98;34.47
60307;BME280;46155;52.364;6.580;2022-09-03T15:44:08;100945.44;;;26.03;33.87
60307;BME280;46155;52.364;6.580;2022-09-03T15:46:49;100938.25;;;25.91;33.52
60307;BME280;46155;52.364;6.580;2022-09-03T15:49:28;100945.41;;;25.82;33.87
60307;BME280;46155;52.364;6.580;2022-09-03T15:52:07;100939.13;;;25.63;34.38
60307;BME280;46155;52.364;6.580;2022-09-03T15:57:27;100943.59;;;25.70;34.20
60307;BME280;46155;52.364;6.580;2022-09-03T16:00:00;100937.34;;;25.66;34.89
60307;BME280;46155;52.364;6.580;2022-09-03T16:02:33;100940.00;;;25.78;34.85
60307;BME280;46155;52.364;6.580;2022-09-03T16:05:15;100934.63;;;25.77;34.36
60307;BME280;46155;52.364;6.580;2022-09-03T16:08:04;100936.44;;;25.83;34.13
60307;BME280;46155;52.364;6.580;2022-09-03T16:19:31;100941.81;;;25.87;34.14
60307;BME280;46155;52.364;6.580;2022-09-03T16:22:05;100947.22;;;25.87;34.27
60307;BME280;46155;52.364;6.580;2022-09-03T16:24:54;100944.50;;;25.84;33.68
60307;BME280;46155;52.364;6.580;2022-09-03T16:27:27;100951.66;;;25.85;34.08
60307;BME280;46155;52.364;6.580;2022-09-03T16:32:41;100945.41;;;25.85;34.60
60307;BME280;46155;52.364;6.580;2022-09-03T16:38:05;100940.91;;;25.67;34.89
60307;BME280;46155;52.364;6.580;2022-09-03T16:40:46;100948.97;;;25.68;35.16
60307;BME280;46155;52.364;6.580;2022-09-03T16:43:39;100947.16;;;25.67;34.93
60307;BME280;46155;52.364;6.580;2022-09-03T16:46:29;100950.75;;;25.51;35.15
60307;BME280;46155;52.364;6.580;2022-09-03T16:59:24;100950.75;;;25.51;35.18
60307;BME280;46155;52.364;6.580;2022-09-03T17:02:13;100939.09;;;25.42;35.38
60307;BME280;46155;52.364;6.580;2022-09-03T17:13:01;100959.66;;;25.36;36.01
60307;BME280;46155;52.364;6.580;2022-09-03T17:15:52;100964.09;;;25.24;35.87
60307;BME280;46155;52.364;6.580;2022-09-03T17:23:55;100958.72;;;25.21;35.89
60307;BME280;46155;52.364;6.580;2022-09-03T17:26:45;100954.22;;;25.13;36.48
60307;BME280;46155;52.364;6.580;2022-09-03T17:29:30;100955.09;;;25.08;36.76
60307;BME280;46155;52.364;6.580;2022-09-03T17:32:08;100951.47;;;24.99;36.98
60307;BME280;46155;52.364;6.580;2022-09-03T17:40:24;100963.06;;;24.87;37.07
60307;BME280;46155;52.364;6.580;2022-09-03T17:45:39;100968.38;;;24.74;37.44
60307;BME280;46155;52.364;6.580;2022-09-03T17:49:12;100975.47;;;24.60;37.26
60307;BME280;46155;52.364;6.580;2022-09-03T17:51:23;100967.38;;;24.58;37.18
60307;BME280;46155;52.364;6.580;2022-09-03T17:54:04;100977.16;;;24.52;37.70
60307;BME280;46155;52.364;6.580;2022-09-03T17:56:41;100973.59;;;24.50;37.77
60307;BME280;46155;52.364;6.580;2022-09-03T17:59:35;100982.50;;;24.43;37.75
60307;BME280;46155;52.364;6.580;2022-09-03T18:04:48;100991.41;;;24.40;37.96
60307;BME280;46155;52.364;6.580;2022-09-03T18:10:28;100996.69;;;24.29;38.31
60307;BME280;46155;52.364;6.580;2022-09-03T18:13:10;101003.78;;;24.22;38.49
60307;BME280;46155;52.364;6.580;2022-09-03T18:15:53;101010.84;;;24.13;38.53
60307;BME280;46155;52.364;6.580;2022-09-03T18:18:26;101003.63;;;24.01;38.74
60307;BME280;46155;52.364;6.580;2022-09-03T18:20:54;101010.75;;;23.97;38.92
60307;BME280;46155;52.364;6.580;2022-09-03T18:23:48;101015.03;;;23.84;38.71
60307;BME280;46155;52.364;6.580;2022-09-03T18:26:40;101018.59;;;23.80;39.17
60307;BME280;46155;52.364;6.580;2022-09-03T18:30:28;101022.09;;;23.73;39.08
60307;BME280;46155;52.364;6.580;2022-09-03T18:33:05;101025.63;;;23.67;39.32
60307;BME280;46155;52.364;6.580;2022-09-03T18:35:50;101023.78;;;23.63;39.45
60307;BME280;46155;52.364;6.580;2022-09-03T18:38:36;101038.06;;;23.61;39.56
60307;BME280;46155;52.364;6.580;2022-09-03T18:41:43;101031.69;;;23.51;39.43
60307;BME280;46155;52.364;6.580;2022-09-03T18:44:38;101047.72;;;23.45;39.98
60307;BME280;46155;52.364;6.580;2022-09-03T18:50:47;101044.00;;;23.33;40.32
60307;BME280;46155;52.364;6.580;2022-09-03T18:56:42;101049.19;;;23.21;40.37
60307;BME280;46155;52.364;6.580;2022-09-03T18:59:56;101043.59;;;23.06;40.88
60307;BME280;46155;52.364;6.580;2022-09-03T19:06:11;101064.00;;;22.96;41.38
60307;BME280;46155;52.364;6.580;2022-09-03T19:09:06;101072.94;;;22.98;41.51
60307;BME280;46155;52.364;6.580;2022-09-03T19:12:11;101068.34;;;22.89;41.89
60307;BME280;46155;52.364;6.580;2022-09-03T19:20:50;101085.19;;;22.82;41.80
60307;BME280;46155;52.364;6.580;2022-09-03T19:23:37;101082.44;;;22.76;42.05
60307;BME280;46155;52.364;6.580;2022-09-03T19:35:41;101093.63;;;22.50;43.01